sensor_id;sensor_type;location;lat;lon;timestamp;P1;durP1;ratioP1;P2;durP2;ratioP2
74229;SDS011;62589;12.568;99.958;2023-03-16T00:02:15;29.92;;;18.08;;
74229;SDS011;62589;12.568;99.958;2023-03-16T00:04:42;28.27;;;17.38;;
74229;SDS011;62589;12.568;99.958;2023-03-16T00:07:12;32.97;;;19.10;;
74229;SDS011;62589;12.568;99.958;2023-03-16T00:09:39;29.23;;;17.60;;
74229;SDS011;62589;12.568;99.958;2023-03-16T00:12:07;24.88;;;16.70;;
74229;SDS011;62589;12.568;99.958;2023-03-16T00:14:42;26.55;;;16.65;;
74229;SDS011;62589;12.568;99.958;2023-03-16T00:17:11;27.65;;;16.13;;
74229;SDS011;62589;12.568;99.958;2023-03-16T00:19:51;27.48;;;17.23;;
74229;SDS011;62589;12.568;99.958;2023-03-16T00:22:20;31.13;;;17.15;;
74229;SDS011;62589;12.568;99.958;2023-03-16T00:24:48;26.67;;;16.50;;
74229;SDS011;62589;12.568;99.958;2023-03-16T00:27:14;26.08;;;16.17;;
74229;SDS011;62589;12.568;99.958;2023-03-16T00:29:42;33.50;;;16.75;;
74229;SDS011;62589;12.568;99.958;2023-03-16T00:32:16;26.20;;;15.38;;
74229;SDS011;62589;12.568;99.958;2023-03-16T00:34:44;25.60;;;15.55;;
74229;SDS011;62589;12.568;99.958;2023-03-16T00:37:12;28.52;;;15.13;;
74229;SDS011;62589;12.568;99.958;2023-03-16T00:39:41;26.23;;;14.98;;
74229;SDS011;62589;12.568;99.958;2023-03-16T00:42:10;28.05;;;15.00;;
74229;SDS011;62589;12.568;99.958;2023-03-16T00:44:37;25.58;;;14.63;;
74229;SDS011;62589;12.568;99.958;2023-03-16T00:47:04;22.90;;;14.25;;
74229;SDS011;62589;12.568;99.958;2023-03-16T00:49:31;26.20;;;14.27;;
74229;SDS011;62589;12.568;99.958;2023-03-16T00:52:00;25.55;;;13.85;;
74229;SDS011;62589;12.568;99.958;2023-03-16T00:54:27;23.10;;;13.55;;
74229;SDS011;62589;12.568;99.958;2023-03-16T00:56:54;26.63;;;14.10;;
74229;SDS011;62589;12.568;99.958;2023-03-16T00:59:21;28.05;;;14.57;;
74229;SDS011;62589;12.568;99.958;2023-03-16T01:01:47;25.80;;;13.35;;
74229;SDS011;62589;12.568;99.958;2023-03-16T01:04:13;23.58;;;13.45;;
74229;SDS011;62589;12.568;99.958;2023-03-16T01:06:40;22.83;;;13.10;;
74229;SDS011;62589;12.568;99.958;2023-03-16T01:09:06;21.13;;;12.65;;
74229;SDS011;62589;12.568;99.958;2023-03-16T01:11:33;26.63;;;13.00;;
74229;SDS011;62589;12.568;99.958;2023-03-16T01:14:00;23.80;;;13.50;;
74229;SDS011;62589;12.568;99.958;2023-03-16T01:16:26;22.02;;;12.65;;
74229;SDS011;62589;12.568;99.958;2023-03-16T01:18:53;24.60;;;13.48;;
74229;SDS011;62589;12.568;99.958;2023-03-16T01:21:21;22.30;;;14.30;;
74229;SDS011;62589;12.568;99.958;2023-03-16T01:23:48;23.88;;;13.15;;
74229;SDS011;62589;12.568;99.958;2023-03-16T01:26:14;23.00;;;13.20;;
74229;SDS011;62589;12.568;99.958;2023-03-16T01:28:42;27.73;;;14.52;;
74229;SDS011;62589;12.568;99.958;2023-03-16T01:31:10;24.88;;;13.43;;
74229;SDS011;62589;12.568;99.958;2023-03-16T01:33:38;25.85;;;13.65;;
74229;SDS011;62589;12.568;99.958;2023-03-16T01:36:10;24.33;;;13.45;;
74229;SDS011;62589;12.568;99.958;2023-03-16T01:38:39;21.97;;;12.73;;
74229;SDS011;62589;12.568;99.958;2023-03-16T01:41:05;22.77;;;12.30;;
74229;SDS011;62589;12.568;99.958;2023-03-16T01:43:33;28.65;;;13.32;;
74229;SDS011;62589;12.568;99.958;2023-03-16T01:46:21;26.08;;;12.85;;
74229;SDS011;62589;12.568;99.958;2023-03-16T01:49:09;25.00;;;12.85;;
74229;SDS011;62589;12.568;99.958;2023-03-16T01:57:20;21.77;;;11.57;;
74229;SDS011;62589;12.568;99.958;2023-03-16T01:59:58;18.65;;;10.55;;
74229;SDS011;62589;12.568;99.958;2023-03-16T02:02:48;25.27;;;12.23;;
74229;SDS011;62589;12.568;99.958;2023-03-16T02:08:17;23.15;;;12.98;;
74229;SDS011;62589;12.568;99.958;2023-03-16T02:10:44;21.73;;;12.85;;
74229;SDS011;62589;12.568;99.958;2023-03-16T02:13:11;22.00;;;12.77;;
74229;SDS011;62589;12.568;99.958;2023-03-16T02:15:37;23.63;;;12.95;;
74229;SDS011;62589;12.568;99.958;2023-03-16T02:18:04;30.50;;;13.48;;
74229;SDS011;62589;12.568;99.958;2023-03-16T02:20:35;18.70;;;12.02;;
74229;SDS011;62589;12.568;99.958;2023-03-16T02:23:09;24.65;;;11.60;;
74229;SDS011;62589;12.568;99.958;2023-03-16T02:25:56;20.60;;;12.25;;
74229;SDS011;62589;12.568;99.958;2023-03-16T02:31:22;23.55;;;12.82;;
74229;SDS011;62589;12.568;99.958;2023-03-16T02:33:48;18.23;;;12.35;;
74229;SDS011;62589;12.568;99.958;2023-03-16T02:36:17;27.23;;;12.75;;
74229;SDS011;62589;12.568;99.958;2023-03-16T02:38:44;20.25;;;12.48;;
74229;SDS011;62589;12.568;99.958;2023-03-16T02:41:12;24.38;;;12.77;;
74229;SDS011;62589;12.568;99.958;2023-03-16T02:46:29;23.38;;;13.65;;
74229;SDS011;62589;12.568;99.958;2023-03-16T02:49:13;26.08;;;12.68;;
74229;SDS011;62589;12.568;99.958;2023-03-16T02:52:00;28.10;;;14.02;;
74229;SDS011;62589;12.568;99.958;2023-03-16T02:54:27;23.08;;;12.93;;
74229;SDS011;62589;12.568;99.958;2023-03-16T02:56:53;26.13;;;13.60;;
74229;SDS011;62589;12.568;99.958;2023-03-16T02:59:20;27.00;;;13.45;;
74229;SDS011;62589;12.568;99.958;2023-03-16T03:01:46;27.58;;;13.13;;
74229;SDS011;62589;12.568;99.958;2023-03-16T03:04:13;28.98;;;13.43;;
74229;SDS011;62589;12.568;99.958;2023-03-16T03:06:39;27.73;;;12.90;;
74229;SDS011;62589;12.568;99.958;2023-03-16T03:09:06;31.15;;;13.88;;
74229;SDS011;62589;12.568;99.958;2023-03-16T03:11:34;36.20;;;13.82;;
74229;SDS011;62589;12.568;99.958;2023-03-16T03:14:00;23.77;;;13.15;;
74229;SDS011;62589;12.568;99.958;2023-03-16T03:16:26;29.98;;;13.27;;
74229;SDS011;62589;12.568;99.958;2023-03-16T03:18:53;36.35;;;14.13;;
74229;SDS011;62589;12.568;99.958;2023-03-16T03:21:19;29.98;;;13.57;;
74229;SDS011;62589;12.568;99.958;2023-03-16T03:23:46;28.90;;;13.65;;
74229;SDS011;62589;12.568;99.958;2023-03-16T03:26:13;23.58;;;12.68;;
74229;SDS011;62589;12.568;99.958;2023-03-16T03:28:40;26.10;;;12.55;;
74229;SDS011;62589;12.568;99.958;2023-03-16T03:31:07;29.60;;;12.98;;
74229;SDS011;62589;12.568;99.958;2023-03-16T03:33:42;22.95;;;13.52;;
74229;SDS011;62589;12.568;99.958;2023-03-16T03:36:09;25.00;;;14.25;;
74229;SDS011;62589;12.568;99.958;2023-03-16T03:38:36;26.70;;;14.02;;
74229;SDS011;62589;12.568;99.958;2023-03-16T03:41:03;27.77;;;13.73;;
74229;SDS011;62589;12.568;99.958;2023-03-16T03:43:32;25.75;;;12.43;;
74229;SDS011;62589;12.568;99.958;2023-03-16T03:45:59;29.38;;;14.10;;
74229;SDS011;62589;12.568;99.958;2023-03-16T03:48:27;25.67;;;13.70;;
74229;SDS011;62589;12.568;99.958;2023-03-16T03:50:53;26.67;;;13.52;;
74229;SDS011;62589;12.568;99.958;2023-03-16T03:53:20;21.80;;;12.55;;
74229;SDS011;62589;12.568;99.958;2023-03-16T03:55:46;23.00;;;12.48;;
74229;SDS011;62589;12.568;99.958;2023-03-16T03:58:16;27.65;;;13.05;;
74229;SDS011;62589;12.568;99.958;2023-03-16T04:00:42;32.00;;;12.40;;
74229;SDS011;62589;12.568;99.958;2023-03-16T04:03:09;26.52;;;12.77;;
74229;SDS011;62589;12.568;99.958;2023-03-16T04:05:35;27.98;;;12.40;;
74229;SDS011;62589;12.568;99.958;2023-03-16T04:08:01;23.85;;;11.70;;
74229;SDS011;62589;12.568;99.958;2023-03-16T04:10:28;24.05;;;11.70;;
74229;SDS011;62589;12.568;99.958;2023-03-16T04:12:56;26.50;;;12.98;;
74229;SDS011;62589;12.568;99.958;2023-03-16T04:15:23;27.25;;;11.90;;
74229;SDS011;62589;12.568;99.958;2023-03-16T04:17:50;28.67;;;11.90;;
74229;SDS011;62589;12.568;99.958;2023-03-16T04:20:17;24.40;;;11.43;;
74229;SDS011;62589;12.568;99.958;2023-03-16T04:22:45;25.67;;;12.70;;
74229;SDS011;62589;12.568;99.958;2023-03-16T04:25:12;26.02;;;12.35;;
74229;SDS011;62589;12.568;99.958;2023-03-16T04:27:41;19.70;;;11.70;;
74229;SDS011;62589;12.568;99.958;2023-03-16T04:30:09;26.13;;;12.80;;
74229;SDS011;62589;12.568;99.958;2023-03-16T04:32:38;23.23;;;11.07;;
74229;SDS011;62589;12.568;99.958;2023-03-16T04:35:06;24.08;;;12.63;;
74229;SDS011;62589;12.568;99.958;2023-03-16T04:37:32;23.13;;;11.60;;
74229;SDS011;62589;12.568;99.958;2023-03-16T04:39:59;21.50;;;11.63;;
74229;SDS011;62589;12.568;99.958;2023-03-16T04:42:33;29.75;;;12.40;;
74229;SDS011;62589;12.568;99.958;2023-03-16T04:45:00;24.65;;;11.73;;
74229;SDS011;62589;12.568;99.958;2023-03-16T04:47:27;23.98;;;11.20;;
74229;SDS011;62589;12.568;99.958;2023-03-16T04:49:54;24.38;;;11.52;;
74229;SDS011;62589;12.568;99.958;2023-03-16T04:52:21;25.20;;;11.52;;
74229;SDS011;62589;12.568;99.958;2023-03-16T04:54:47;23.85;;;11.68;;
74229;SDS011;62589;12.568;99.958;2023-03-16T04:57:14;19.08;;;10.65;;
74229;SDS011;62589;12.568;99.958;2023-03-16T04:59:44;20.95;;;11.27;;
74229;SDS011;62589;12.568;99.958;2023-03-16T05:02:10;23.20;;;11.50;;
74229;SDS011;62589;12.568;99.958;2023-03-16T05:04:37;23.33;;;11.60;;
74229;SDS011;62589;12.568;99.958;2023-03-16T05:07:03;20.70;;;10.65;;
74229;SDS011;62589;12.568;99.958;2023-03-16T05:09:30;18.75;;;10.43;;
74229;SDS011;62589;12.568;99.958;2023-03-16T05:11:57;22.95;;;11.10;;
74229;SDS011;62589;12.568;99.958;2023-03-16T05:14:23;20.45;;;11.35;;
74229;SDS011;62589;12.568;99.958;2023-03-16T05:16:50;20.80;;;10.45;;
74229;SDS011;62589;12.568;99.958;2023-03-16T05:19:17;21.42;;;10.50;;
74229;SDS011;62589;12.568;99.958;2023-03-16T05:21:43;25.63;;;11.35;;
74229;SDS011;62589;12.568;99.958;2023-03-16T05:24:10;22.60;;;11.57;;
74229;SDS011;62589;12.568;99.958;2023-03-16T05:26:39;18.85;;;11.52;;
74229;SDS011;62589;12.568;99.958;2023-03-16T05:29:06;19.58;;;10.95;;
74229;SDS011;62589;12.568;99.958;2023-03-16T05:31:32;19.40;;;10.32;;
74229;SDS011;62589;12.568;99.958;2023-03-16T05:34:00;23.38;;;10.70;;
74229;SDS011;62589;12.568;99.958;2023-03-16T05:36:26;20.90;;;10.80;;
74229;SDS011;62589;12.568;99.958;2023-03-16T05:38:53;21.13;;;10.82;;
74229;SDS011;62589;12.568;99.958;2023-03-16T05:41:19;23.15;;;10.73;;
74229;SDS011;62589;12.568;99.958;2023-03-16T05:43:47;20.40;;;10.63;;
74229;SDS011;62589;12.568;99.958;2023-03-16T05:46:13;22.65;;;10.45;;
74229;SDS011;62589;12.568;99.958;2023-03-16T05:48:40;23.45;;;11.85;;
74229;SDS011;62589;12.568;99.958;2023-03-16T05:51:06;21.45;;;10.90;;
74229;SDS011;62589;12.568;99.958;2023-03-16T05:53:33;20.92;;;10.27;;
74229;SDS011;62589;12.568;99.958;2023-03-16T05:56:00;22.50;;;11.82;;
74229;SDS011;62589;12.568;99.958;2023-03-16T05:58:27;24.88;;;11.25;;
74229;SDS011;62589;12.568;99.958;2023-03-16T06:00:53;19.38;;;10.60;;
74229;SDS011;62589;12.568;99.958;2023-03-16T06:03:20;16.67;;;10.68;;
74229;SDS011;62589;12.568;99.958;2023-03-16T06:05:47;20.33;;;10.85;;
74229;SDS011;62589;12.568;99.958;2023-03-16T06:08:14;24.25;;;10.88;;
74229;SDS011;62589;12.568;99.958;2023-03-16T06:10:41;21.48;;;11.25;;
74229;SDS011;62589;12.568;99.958;2023-03-16T06:13:07;20.02;;;11.00;;
74229;SDS011;62589;12.568;99.958;2023-03-16T06:15:33;23.10;;;11.93;;
74229;SDS011;62589;12.568;99.958;2023-03-16T06:18:00;21.73;;;10.48;;
74229;SDS011;62589;12.568;99.958;2023-03-16T06:20:26;19.42;;;10.35;;
74229;SDS011;62589;12.568;99.958;2023-03-16T06:22:56;24.05;;;11.77;;
74229;SDS011;62589;12.568;99.958;2023-03-16T06:25:22;23.45;;;10.75;;
74229;SDS011;62589;12.568;99.958;2023-03-16T06:27:49;21.48;;;11.18;;
74229;SDS011;62589;12.568;99.958;2023-03-16T06:30:15;16.90;;;10.40;;
74229;SDS011;62589;12.568;99.958;2023-03-16T06:32:42;19.02;;;10.38;;
74229;SDS011;62589;12.568;99.958;2023-03-16T06:35:12;17.13;;;10.18;;
74229;SDS011;62589;12.568;99.958;2023-03-16T06:37:39;18.77;;;10.15;;
74229;SDS011;62589;12.568;99.958;2023-03-16T06:40:06;20.73;;;10.25;;
74229;SDS011;62589;12.568;99.958;2023-03-16T06:42:33;21.85;;;10.50;;
74229;SDS011;62589;12.568;99.958;2023-03-16T06:44:59;17.95;;;10.30;;
74229;SDS011;62589;12.568;99.958;2023-03-16T06:47:26;25.13;;;11.32;;
74229;SDS011;62589;12.568;99.958;2023-03-16T06:49:52;21.40;;;11.43;;
74229;SDS011;62589;12.568;99.958;2023-03-16T06:52:20;20.30;;;10.25;;
74229;SDS011;62589;12.568;99.958;2023-03-16T06:54:46;23.85;;;11.00;;
74229;SDS011;62589;12.568;99.958;2023-03-16T06:57:13;26.13;;;11.63;;
74229;SDS011;62589;12.568;99.958;2023-03-16T06:59:39;21.95;;;11.27;;
74229;SDS011;62589;12.568;99.958;2023-03-16T07:02:06;18.83;;;10.18;;
74229;SDS011;62589;12.568;99.958;2023-03-16T07:04:34;23.48;;;11.60;;
74229;SDS011;62589;12.568;99.958;2023-03-16T07:07:00;20.42;;;11.43;;
74229;SDS011;62589;12.568;99.958;2023-03-16T07:09:27;21.08;;;10.77;;
74229;SDS011;62589;12.568;99.958;2023-03-16T07:11:54;21.40;;;10.88;;
74229;SDS011;62589;12.568;99.958;2023-03-16T07:14:20;23.42;;;10.77;;
74229;SDS011;62589;12.568;99.958;2023-03-16T07:16:47;21.95;;;11.10;;
74229;SDS011;62589;12.568;99.958;2023-03-16T07:19:14;21.50;;;10.32;;
74229;SDS011;62589;12.568;99.958;2023-03-16T07:21:40;21.85;;;11.20;;
74229;SDS011;62589;12.568;99.958;2023-03-16T07:24:07;20.25;;;11.05;;
74229;SDS011;62589;12.568;99.958;2023-03-16T07:26:35;21.35;;;10.63;;
74229;SDS011;62589;12.568;99.958;2023-03-16T07:29:02;22.65;;;11.63;;
74229;SDS011;62589;12.568;99.958;2023-03-16T07:31:30;20.02;;;10.82;;
74229;SDS011;62589;12.568;99.958;2023-03-16T07:33:57;17.33;;;10.40;;
74229;SDS011;62589;12.568;99.958;2023-03-16T07:36:24;23.13;;;10.45;;
74229;SDS011;62589;12.568;99.958;2023-03-16T07:38:51;24.52;;;10.57;;
74229;SDS011;62589;12.568;99.958;2023-03-16T07:41:17;20.88;;;11.95;;
74229;SDS011;62589;12.568;99.958;2023-03-16T07:43:44;20.10;;;11.30;;
74229;SDS011;62589;12.568;99.958;2023-03-16T07:46:10;20.23;;;11.18;;
74229;SDS011;62589;12.568;99.958;2023-03-16T07:48:38;20.80;;;11.65;;
74229;SDS011;62589;12.568;99.958;2023-03-16T07:51:07;23.52;;;12.05;;
74229;SDS011;62589;12.568;99.958;2023-03-16T07:53:34;21.35;;;11.98;;
74229;SDS011;62589;12.568;99.958;2023-03-16T07:56:00;29.92;;;13.70;;
74229;SDS011;62589;12.568;99.958;2023-03-16T07:58:27;23.23;;;11.50;;
74229;SDS011;62589;12.568;99.958;2023-03-16T08:00:59;21.95;;;11.35;;
74229;SDS011;62589;12.568;99.958;2023-03-16T08:03:27;21.73;;;12.10;;
74229;SDS011;62589;12.568;99.958;2023-03-16T08:05:56;21.80;;;11.70;;
74229;SDS011;62589;12.568;99.958;2023-03-16T08:08:22;27.90;;;13.13;;
74229;SDS011;62589;12.568;99.958;2023-03-16T08:10:49;21.88;;;11.45;;
74229;SDS011;62589;12.568;99.958;2023-03-16T08:13:17;25.80;;;11.73;;
74229;SDS011;62589;12.568;99.958;2023-03-16T08:15:47;24.17;;;11.15;;
74229;SDS011;62589;12.568;99.958;2023-03-16T08:18:24;25.67;;;11.65;;
74229;SDS011;62589;12.568;99.958;2023-03-16T08:20:51;22.23;;;10.95;;
74229;SDS011;62589;12.568;99.958;2023-03-16T08:23:17;20.70;;;11.25;;
74229;SDS011;62589;12.568;99.958;2023-03-16T08:25:44;28.58;;;11.20;;
74229;SDS011;62589;12.568;99.958;2023-03-16T08:28:10;28.20;;;11.82;;
74229;SDS011;62589;12.568;99.958;2023-03-16T08:30:42;21.83;;;11.70;;
74229;SDS011;62589;12.568;99.958;2023-03-16T08:33:11;24.05;;;12.10;;
74229;SDS011;62589;12.568;99.958;2023-03-16T08:35:40;25.55;;;12.10;;
74229;SDS011;62589;12.568;99.958;2023-03-16T08:38:09;22.52;;;11.73;;
74229;SDS011;62589;12.568;99.958;2023-03-16T08:40:36;26.90;;;11.70;;
74229;SDS011;62589;12.568;99.958;2023-03-16T08:43:09;20.00;;;10.75;;
74229;SDS011;62589;12.568;99.958;2023-03-16T08:45:36;24.38;;;11.60;;
74229;SDS011;62589;12.568;99.958;2023-03-16T08:48:03;24.95;;;11.85;;
74229;SDS011;62589;12.568;99.958;2023-03-16T08:50:29;24.08;;;11.60;;
74229;SDS011;62589;12.568;99.958;2023-03-16T08:52:56;26.08;;;12.77;;
74229;SDS011;62589;12.568;99.958;2023-03-16T08:55:23;25.27;;;12.18;;
74229;SDS011;62589;12.568;99.958;2023-03-16T08:57:50;27.23;;;11.48;;
74229;SDS011;62589;12.568;99.958;2023-03-16T09:00:17;20.02;;;11.43;;
74229;SDS011;62589;12.568;99.958;2023-03-16T09:02:44;27.52;;;11.88;;
74229;SDS011;62589;12.568;99.958;2023-03-16T09:05:12;24.77;;;11.45;;
74229;SDS011;62589;12.568;99.958;2023-03-16T09:07:40;23.35;;;11.13;;
74229;SDS011;62589;12.568;99.958;2023-03-16T09:10:08;21.13;;;11.00;;
74229;SDS011;62589;12.568;99.958;2023-03-16T09:12:37;25.60;;;11.77;;
74229;SDS011;62589;12.568;99.958;2023-03-16T09:15:05;19.63;;;10.73;;
74229;SDS011;62589;12.568;99.958;2023-03-16T09:17:33;23.58;;;10.65;;
74229;SDS011;62589;12.568;99.958;2023-03-16T09:20:01;24.40;;;11.82;;
74229;SDS011;62589;12.568;99.958;2023-03-16T09:22:29;21.27;;;11.27;;
74229;SDS011;62589;12.568;99.958;2023-03-16T09:24:56;23.98;;;10.88;;
74229;SDS011;62589;12.568;99.958;2023-03-16T09:27:22;20.85;;;11.43;;
74229;SDS011;62589;12.568;99.958;2023-03-16T09:29:49;22.02;;;10.77;;
74229;SDS011;62589;12.568;99.958;2023-03-16T09:32:20;25.63;;;11.85;;
74229;SDS011;62589;12.568;99.958;2023-03-16T09:34:47;22.60;;;11.25;;
74229;SDS011;62589;12.568;99.958;2023-03-16T09:37:13;24.90;;;11.95;;
74229;SDS011;62589;12.568;99.958;2023-03-16T09:39:40;24.38;;;11.95;;
74229;SDS011;62589;12.568;99.958;2023-03-16T09:48:00;24.93;;;12.47;;
74229;SDS011;62589;12.568;99.958;2023-03-16T09:50:31;22.17;;;11.18;;
74229;SDS011;62589;12.568;99.958;2023-03-16T09:53:22;18.58;;;11.80;;
74229;SDS011;62589;12.568;99.958;2023-03-16T09:56:09;22.00;;;11.75;;
74229;SDS011;62589;12.568;99.958;2023-03-16T09:58:41;23.63;;;11.90;;
74229;SDS011;62589;12.568;99.958;2023-03-16T10:01:14;25.63;;;11.55;;
74229;SDS011;62589;12.568;99.958;2023-03-16T10:04:10;19.92;;;11.02;;
74229;SDS011;62589;12.568;99.958;2023-03-16T10:09:53;21.77;;;11.25;;
74229;SDS011;62589;12.568;99.958;2023-03-16T10:12:25;20.40;;;11.10;;
74229;SDS011;62589;12.568;99.958;2023-03-16T10:17:54;24.13;;;11.38;;
74229;SDS011;62589;12.568;99.958;2023-03-16T10:20:30;23.02;;;11.30;;
74229;SDS011;62589;12.568;99.958;2023-03-16T10:22:59;21.33;;;11.75;;
74229;SDS011;62589;12.568;99.958;2023-03-16T10:25:41;23.17;;;11.18;;
74229;SDS011;62589;12.568;99.958;2023-03-16T10:28:17;22.83;;;11.63;;
74229;SDS011;62589;12.568;99.958;2023-03-16T10:30:46;24.88;;;11.57;;
74229;SDS011;62589;12.568;99.958;2023-03-16T10:33:17;23.63;;;11.43;;
74229;SDS011;62589;12.568;99.958;2023-03-16T10:38:55;25.27;;;11.88;;
74229;SDS011;62589;12.568;99.958;2023-03-16T10:41:28;27.00;;;12.85;;
74229;SDS011;62589;12.568;99.958;2023-03-16T10:44:15;19.85;;;11.93;;
74229;SDS011;62589;12.568;99.958;2023-03-16T10:46:58;21.98;;;11.90;;
74229;SDS011;62589;12.568;99.958;2023-03-16T10:49:37;23.92;;;12.00;;
74229;SDS011;62589;12.568;99.958;2023-03-16T10:55:11;27.73;;;12.43;;
74229;SDS011;62589;12.568;99.958;2023-03-16T10:57:57;19.50;;;11.43;;
74229;SDS011;62589;12.568;99.958;2023-03-16T11:00:34;22.75;;;11.63;;
74229;SDS011;62589;12.568;99.958;2023-03-16T11:03:12;20.23;;;11.93;;
74229;SDS011;62589;12.568;99.958;2023-03-16T11:06:00;24.23;;;11.35;;
74229;SDS011;62589;12.568;99.958;2023-03-16T11:08:31;25.95;;;13.00;;
74229;SDS011;62589;12.568;99.958;2023-03-16T11:11:09;20.77;;;11.75;;
74229;SDS011;62589;12.568;99.958;2023-03-16T11:13:44;18.50;;;11.27;;
74229;SDS011;62589;12.568;99.958;2023-03-16T11:16:23;20.35;;;11.65;;
74229;SDS011;62589;12.568;99.958;2023-03-16T11:18:57;22.10;;;12.45;;
74229;SDS011;62589;12.568;99.958;2023-03-16T11:30:29;26.58;;;12.73;;
74229;SDS011;62589;12.568;99.958;2023-03-16T11:33:16;26.33;;;13.23;;
74229;SDS011;62589;12.568;99.958;2023-03-16T11:50:13;21.23;;;11.60;;
74229;SDS011;62589;12.568;99.958;2023-03-16T12:10:28;19.90;;;9.77;;
74229;SDS011;62589;12.568;99.958;2023-03-16T12:19:02;21.88;;;11.02;;
74229;SDS011;62589;12.568;99.958;2023-03-16T12:21:37;24.77;;;11.05;;
74229;SDS011;62589;12.568;99.958;2023-03-16T12:24:19;15.02;;;9.48;;
74229;SDS011;62589;12.568;99.958;2023-03-16T12:26:51;18.95;;;10.50;;
74229;SDS011;62589;12.568;99.958;2023-03-16T12:35:20;13.90;;;9.65;;
74229;SDS011;62589;12.568;99.958;2023-03-16T12:38:15;18.48;;;9.38;;
74229;SDS011;62589;12.568;99.958;2023-03-16T12:43:45;20.67;;;10.18;;
74229;SDS011;62589;12.568;99.958;2023-03-16T12:46:30;20.77;;;10.95;;
74229;SDS011;62589;12.568;99.958;2023-03-16T12:49:10;20.45;;;9.95;;
74229;SDS011;62589;12.568;99.958;2023-03-16T12:51:39;22.00;;;10.45;;
74229;SDS011;62589;12.568;99.958;2023-03-16T12:54:17;18.27;;;9.95;;
74229;SDS011;62589;12.568;99.958;2023-03-16T12:56:50;19.60;;;10.85;;
74229;SDS011;62589;12.568;99.958;2023-03-16T12:59:19;20.15;;;10.75;;
74229;SDS011;62589;12.568;99.958;2023-03-16T13:01:49;22.08;;;10.82;;
74229;SDS011;62589;12.568;99.958;2023-03-16T13:04:28;18.13;;;10.20;;
74229;SDS011;62589;12.568;99.958;2023-03-16T13:07:08;20.70;;;10.55;;
74229;SDS011;62589;12.568;99.958;2023-03-16T13:09:43;21.55;;;10.43;;
74229;SDS011;62589;12.568;99.958;2023-03-16T13:23:50;17.88;;;10.95;;
74229;SDS011;62589;12.568;99.958;2023-03-16T13:26:40;20.00;;;11.65;;
74229;SDS011;62589;12.568;99.958;2023-03-16T13:29:20;24.02;;;12.35;;
74229;SDS011;62589;12.568;99.958;2023-03-16T13:31:55;26.77;;;12.00;;
74229;SDS011;62589;12.568;99.958;2023-03-16T13:34:45;23.48;;;11.90;;
74229;SDS011;62589;12.568;99.958;2023-03-16T13:37:17;24.10;;;12.05;;
74229;SDS011;62589;12.568;99.958;2023-03-16T13:39:56;20.23;;;10.60;;
74229;SDS011;62589;12.568;99.958;2023-03-16T13:42:25;21.98;;;10.65;;
74229;SDS011;62589;12.568;99.958;2023-03-16T13:44:56;23.90;;;13.20;;
74229;SDS011;62589;12.568;99.958;2023-03-16T13:47:28;25.95;;;11.45;;
74229;SDS011;62589;12.568;99.958;2023-03-16T13:49:55;20.70;;;11.52;;
74229;SDS011;62589;12.568;99.958;2023-03-16T13:52:30;20.95;;;12.18;;
74229;SDS011;62589;12.568;99.958;2023-03-16T13:55:01;28.70;;;12.43;;
74229;SDS011;62589;12.568;99.958;2023-03-16T13:57:34;23.80;;;12.43;;
74229;SDS011;62589;12.568;99.958;2023-03-16T14:00:06;29.33;;;12.52;;
74229;SDS011;62589;12.568;99.958;2023-03-16T14:02:42;20.95;;;11.32;;
74229;SDS011;62589;12.568;99.958;2023-03-16T14:05:15;25.00;;;11.43;;
74229;SDS011;62589;12.568;99.958;2023-03-16T14:07:48;18.58;;;10.63;;
74229;SDS011;62589;12.568;99.958;2023-03-16T14:10:15;25.92;;;11.70;;
74229;SDS011;62589;12.568;99.958;2023-03-16T14:12:56;25.23;;;11.10;;
74229;SDS011;62589;12.568;99.958;2023-03-16T14:15:24;25.48;;;11.98;;
74229;SDS011;62589;12.568;99.958;2023-03-16T14:17:52;21.45;;;10.68;;
74229;SDS011;62589;12.568;99.958;2023-03-16T14:20:26;33.20;;;11.52;;
74229;SDS011;62589;12.568;99.958;2023-03-16T14:22:52;23.65;;;10.57;;
74229;SDS011;62589;12.568;99.958;2023-03-16T14:25:20;21.65;;;10.55;;
74229;SDS011;62589;12.568;99.958;2023-03-16T14:28:05;25.30;;;10.65;;
74229;SDS011;62589;12.568;99.958;2023-03-16T14:30:32;27.73;;;10.52;;
74229;SDS011;62589;12.568;99.958;2023-03-16T14:33:01;20.83;;;10.35;;
74229;SDS011;62589;12.568;99.958;2023-03-16T14:35:52;23.63;;;11.20;;
74229;SDS011;62589;12.568;99.958;2023-03-16T14:38:29;20.52;;;10.55;;
74229;SDS011;62589;12.568;99.958;2023-03-16T14:41:01;25.70;;;11.13;;
74229;SDS011;62589;12.568;99.958;2023-03-16T14:43:30;22.00;;;11.20;;
74229;SDS011;62589;12.568;99.958;2023-03-16T14:46:04;22.10;;;11.20;;
74229;SDS011;62589;12.568;99.958;2023-03-16T14:48:32;28.00;;;13.52;;
74229;SDS011;62589;12.568;99.958;2023-03-16T14:51:00;24.55;;;12.18;;
74229;SDS011;62589;12.568;99.958;2023-03-16T14:53:28;33.50;;;14.82;;
74229;SDS011;62589;12.568;99.958;2023-03-16T14:55:56;34.10;;;14.88;;
74229;SDS011;62589;12.568;99.958;2023-03-16T14:58:23;31.40;;;14.30;;
74229;SDS011;62589;12.568;99.958;2023-03-16T15:00:50;30.10;;;14.63;;
74229;SDS011;62589;12.568;99.958;2023-03-16T15:03:19;31.50;;;14.25;;
74229;SDS011;62589;12.568;99.958;2023-03-16T15:05:49;26.85;;;14.48;;
74229;SDS011;62589;12.568;99.958;2023-03-16T15:08:18;27.63;;;12.75;;
74229;SDS011;62589;12.568;99.958;2023-03-16T15:10:50;31.10;;;13.50;;
74229;SDS011;62589;12.568;99.958;2023-03-16T15:13:19;30.52;;;15.32;;
74229;SDS011;62589;12.568;99.958;2023-03-16T15:16:00;29.05;;;13.80;;
74229;SDS011;62589;12.568;99.958;2023-03-16T15:18:28;28.77;;;15.25;;
74229;SDS011;62589;12.568;99.958;2023-03-16T15:20:55;28.20;;;15.02;;
74229;SDS011;62589;12.568;99.958;2023-03-16T15:23:22;35.22;;;13.70;;
74229;SDS011;62589;12.568;99.958;2023-03-16T15:25:49;27.23;;;13.45;;
74229;SDS011;62589;12.568;99.958;2023-03-16T15:28:21;26.00;;;12.55;;
74229;SDS011;62589;12.568;99.958;2023-03-16T15:30:56;22.95;;;12.10;;
74229;SDS011;62589;12.568;99.958;2023-03-16T15:34:19;22.25;;;12.32;;
74229;SDS011;62589;12.568;99.958;2023-03-16T15:36:47;30.27;;;13.63;;
74229;SDS011;62589;12.568;99.958;2023-03-16T15:39:17;26.50;;;12.13;;
74229;SDS011;62589;12.568;99.958;2023-03-16T15:41:47;24.00;;;12.30;;
74229;SDS011;62589;12.568;99.958;2023-03-16T15:44:13;22.17;;;11.43;;
74229;SDS011;62589;12.568;99.958;2023-03-16T15:46:40;20.63;;;11.05;;
74229;SDS011;62589;12.568;99.958;2023-03-16T15:49:06;19.92;;;10.27;;
74229;SDS011;62589;12.568;99.958;2023-03-16T15:51:32;23.45;;;12.50;;
74229;SDS011;62589;12.568;99.958;2023-03-16T15:54:00;19.80;;;10.38;;
74229;SDS011;62589;12.568;99.958;2023-03-16T15:56:30;21.92;;;10.65;;
74229;SDS011;62589;12.568;99.958;2023-03-16T15:59:03;20.55;;;10.65;;
74229;SDS011;62589;12.568;99.958;2023-03-16T16:01:36;24.88;;;11.07;;
74229;SDS011;62589;12.568;99.958;2023-03-16T16:04:16;19.08;;;10.90;;
74229;SDS011;62589;12.568;99.958;2023-03-16T16:06:45;20.40;;;9.75;;